Time;durP1;ratioP1;P1;durP2;ratioP2;P2;SDS_P1;SDS_P2;PMS_P1;PMS_P2;Temp;Humidity;BMP_temperature;BMP_pressure;BME280_temperature;BME280_humidity;BME280_pressure;Samples;Min_cycle;Max_cycle;Signal;HPM_P1;HPM_P2
2022/09/12 00:01:51;;;;;;;27.13;16.80;;;13.80;92.60;;;;;;5034988;28;20025;-39
2022/09/12 00:04:17;;;;;;;31.63;17.75;;;13.80;92.60;;;;;;5034986;28;20123;-38
2022/09/12 00:06:43;;;;;;;27.17;17.67;;;13.80;92.50;;;;;;5034995;28;20175;-38
2022/09/12 00:09:11;;;;;;;33.50;18.00;;;13.80;92.60;;;;;;5035079;28;20366;-38
2022/09/12 00:11:39;;;;;;;28.90;17.40;;;13.80;92.60;;;;;;5034569;28;20042;-38
2022/09/12 00:14:07;;;;;;;25.92;17.00;;;13.70;92.50;;;;;;5035089;28;20021;-38
2022/09/12 00:16:35;;;;;;;28.05;17.95;;;13.70;92.50;;;;;;5034767;28;20022;-38
2022/09/12 00:19:01;;;;;;;34.70;18.88;;;13.60;92.50;;;;;;5034803;28;20028;-38
2022/09/12 00:21:27;;;;;;;30.80;18.70;;;13.50;92.50;;;;;;5034669;28;20414;-39
2022/09/12 00:23:53;;;;;;;26.88;16.88;;;13.50;92.50;;;;;;5034617;28;20053;-38
2022/09/12 00:26:20;;;;;;;28.40;18.42;;;13.50;92.60;;;;;;5034593;28;20036;-38
2022/09/12 00:28:46;;;;;;;30.73;16.85;;;13.50;92.50;;;;;;5034960;28;20026;-38
2022/09/12 00:31:17;;;;;;;33.50;19.25;;;13.50;92.50;;;;;;5034527;28;20504;-38
2022/09/12 00:33:43;;;;;;;27.63;17.73;;;13.40;92.50;;;;;;5035009;28;20021;-38
2022/09/12 00:36:21;;;;;;;28.55;17.10;;;13.30;92.50;;;;;;5034656;28;20069;-39
2022/09/12 00:38:48;;;;;;;23.75;15.40;;;13.30;92.50;;;;;;5034320;28;20025;-38
2022/09/12 00:41:21;;;;;;;26.02;15.75;;;13.30;92.50;;;;;;5034221;28;20037;-38
2022/09/12 00:43:49;;;;;;;25.35;16.13;;;13.30;92.60;;;;;;5034673;28;20041;-38
2022/09/12 00:46:40;;;;;;;28.80;16.92;;;13.30;92.70;;;;;;5034237;28;20047;-38
2022/09/12 00:49:28;;;;;;;29.52;16.85;;;13.30;92.70;;;;;;5027210;28;20056;-38
2022/09/12 00:52:07;;;;;;;27.55;17.30;;;13.30;92.80;;;;;;5034011;28;20040;-38
2022/09/12 00:54:41;;;;;;;35.70;19.58;;;13.30;92.70;;;;;;5018377;28;20021;-38
2022/09/12 00:57:10;;;;;;;29.70;18.08;;;13.20;92.70;;;;;;5034189;28;20030;-38
2022/09/12 00:59:53;;;;;;;25.40;16.65;;;13.20;92.70;;;;;;5034155;28;20029;-38
2022/09/12 01:02:19;;;;;;;29.73;16.45;;;13.20;92.80;;;;;;5034185;28;20030;-38
2022/09/12 01:04:46;;;;;;;40.08;17.23;;;13.20;92.80;;;;;;5034051;28;20547;-38
2022/09/12 01:07:14;;;;;;;35.40;18.65;;;13.20;92.80;;;;;;5033651;28;20052;-38
2022/09/12 01:09:41;;;;;;;29.48;17.38;;;13.20;92.90;;;;;;5015804;28;20075;-38
2022/09/12 01:12:08;;;;;;;26.90;18.17;;;13.20;92.80;;;;;;5033469;28;20464;-38
2022/09/12 01:14:34;;;;;;;25.30;15.50;;;13.10;92.80;;;;;;5033729;28;20391;-38
2022/09/12 01:17:00;;;;;;;32.17;17.15;;;13.10;92.90;;;;;;5033517;28;20026;-39
2022/09/12 01:19:31;;;;;;;30.02;18.17;;;13.10;92.90;;;;;;5033408;28;20025;-39
2022/09/12 01:22:16;;;;;;;31.13;16.77;;;13.20;93.00;;;;;;5033660;28;20034;-40
2022/09/12 01:24:50;;;;;;;29.52;16.08;;;13.20;93.10;;;;;;5015547;28;20036;-38
2022/09/12 01:28:10;;;;;;;27.40;16.10;;;13.20;93.00;;;;;;5033377;28;20543;-39
2022/09/12 01:31:05;;;;;;;25.02;16.35;;;13.10;92.90;;;;;;4972595;28;20027;-38
2022/09/12 01:34:21;;;;;;;27.00;16.00;;;13.10;92.80;;;;;;5032714;28;20065;-38
2022/09/12 01:37:04;;;;;;;33.15;16.55;;;13.00;92.80;;;;;;4996969;28;20034;-38
2022/09/12 01:39:38;;;;;;;28.17;17.08;;;13.00;92.90;;;;;;5033460;28;20024;-38
2022/09/12 01:42:17;;;;;;;35.28;17.52;;;13.00;92.80;;;;;;5033263;28;20430;-37
2022/09/12 01:44:57;;;;;;;25.02;16.85;;;12.90;92.80;;;;;;5033487;28;20432;-38
2022/09/12 01:47:50;;;;;;;25.88;16.73;;;12.90;92.80;;;;;;5033015;28;20026;-38
2022/09/12 01:50:26;;;;;;;33.03;15.90;;;12.90;92.70;;;;;;5026599;28;20454;-37
2022/09/12 01:53:02;;;;;;;26.20;17.00;;;12.80;92.70;;;;;;5032514;28;20029;-37
2022/09/12 01:55:39;;;;;;;23.92;14.20;;;12.80;92.60;;;;;;5032937;28;20121;-37
2022/09/12 01:58:28;;;;;;;26.83;14.45;;;12.80;92.70;;;;;;5032719;28;20025;-38
2022/09/12 02:01:15;;;;;;;27.42;15.57;;;12.80;92.60;;;;;;5032125;28;20493;-37
2022/09/12 02:03:52;;;;;;;24.35;15.27;;;12.80;92.70;;;;;;5032784;28;20033;-38
2022/09/12 02:06:25;;;;;;;28.95;17.00;;;12.80;92.80;;;;;;5032925;28;20072;-38
2022/09/12 02:08:55;;;;;;;29.13;17.48;;;12.80;92.80;;;;;;5032910;28;20025;-37
2022/09/12 02:11:21;;;;;;;27.60;16.83;;;12.70;92.90;;;;;;5032616;28;20037;-38
2022/09/12 02:13:57;;;;;;;26.42;15.32;;;12.70;92.90;;;;;;5032611;28;20018;-38
2022/09/12 02:16:54;;;;;;;26.88;15.90;;;12.70;92.90;;;;;;5032551;28;20045;-38
2022/09/12 02:19:23;;;;;;;30.65;17.48;;;12.60;92.90;;;;;;4992036;28;20071;-38
2022/09/12 02:21:56;;;;;;;28.02;16.23;;;12.60;92.90;;;;;;5032506;28;20084;-38
2022/09/12 02:24:28;;;;;;;29.33;16.63;;;12.60;93.00;;;;;;5032698;28;20442;-38
2022/09/12 02:27:06;;;;;;;28.15;17.40;;;12.60;93.00;;;;;;5032869;28;20029;-38
2022/09/12 02:29:32;;;;;;;29.75;16.58;;;12.60;93.10;;;;;;5033256;28;20025;-37
2022/09/12 02:32:03;;;;;;;30.58;18.60;;;12.60;93.10;;;;;;5032717;28;20092;-37
2022/09/12 02:34:45;;;;;;;33.90;19.02;;;12.60;93.10;;;;;;5035153;28;20064;-38
2022/09/12 02:37:17;;;;;;;29.20;16.55;;;12.60;93.10;;;;;;5036961;28;20504;-38
2022/09/12 02:39:43;;;;;;;30.40;17.90;;;12.70;93.20;;;;;;5036653;28;20359;-38
2022/09/12 02:42:08;;;;;;;37.50;17.95;;;12.60;92.90;;;;;;5036511;28;20112;-38
2022/09/12 02:44:35;;;;;;;32.58;17.13;;;12.50;92.90;;;;;;5036376;28;20025;-38
2022/09/12 02:47:09;;;;;;;29.33;17.95;;;12.60;93.00;;;;;;5036577;28;20029;-38
2022/09/12 02:49:35;;;;;;;25.02;15.10;;;12.50;92.80;;;;;;5036373;28;20118;-38
2022/09/12 02:52:01;;;;;;;28.58;18.90;;;12.40;92.90;;;;;;5036710;28;20177;-38
2022/09/12 02:54:28;;;;;;;31.73;17.98;;;12.40;92.90;;;;;;5036265;28;20362;-39
2022/09/12 02:56:53;;;;;;;31.65;18.77;;;12.40;93.00;;;;;;5036255;28;20041;-39
2022/09/12 02:59:21;;;;;;;29.13;17.15;;;12.40;93.10;;;;;;5036120;28;20026;-39
2022/09/12 03:02:04;;;;;;;29.42;15.43;;;12.40;93.10;;;;;;5036858;28;20060;-38
2022/09/12 03:04:42;;;;;;;29.88;16.38;;;12.30;93.10;;;;;;5018614;28;20029;-39
2022/09/12 03:07:23;;;;;;;30.50;16.70;;;12.30;93.20;;;;;;5036379;28;20078;-39
2022/09/12 03:09:57;;;;;;;31.00;17.35;;;12.30;93.30;;;;;;5036091;28;20029;-38
2022/09/12 03:12:35;;;;;;;29.30;16.85;;;12.30;93.30;;;;;;5035782;28;20080;-38
2022/09/12 03:15:19;;;;;;;34.50;20.88;;;12.30;93.40;;;;;;5036049;28;20021;-38
2022/09/12 03:18:04;;;;;;;30.98;17.27;;;12.30;93.40;;;;;;5035817;28;20100;-38
2022/09/12 03:21:06;;;;;;;32.22;16.75;;;12.30;93.40;;;;;;5036071;28;20021;-38
2022/09/12 03:23:42;;;;;;;31.08;15.70;;;12.30;93.50;;;;;;5003171;28;20104;-38
2022/09/12 03:26:19;;;;;;;34.20;17.52;;;12.30;93.50;;;;;;5036172;28;20022;-38
2022/09/12 03:28:47;;;;;;;31.15;16.25;;;12.30;93.50;;;;;;5036286;28;20021;-38
2022/09/12 03:31:17;;;;;;;28.60;16.45;;;12.30;93.60;;;;;;5035724;28;20100;-38
2022/09/12 03:33:43;;;;;;;31.50;16.67;;;12.30;93.70;;;;;;5017841;28;20113;-38
2022/09/12 03:36:18;;;;;;;30.52;16.80;;;12.30;93.70;;;;;;5035789;28;20025;-38
2022/09/12 03:38:44;;;;;;;30.13;16.63;;;12.30;93.70;;;;;;5035566;28;20112;-38
2022/09/12 03:41:10;;;;;;;29.10;15.98;;;12.30;93.70;;;;;;5035453;28;20068;-38
2022/09/12 03:43:35;;;;;;;31.70;17.05;;;12.30;93.70;;;;;;5035558;28;20032;-38
2022/09/12 03:46:01;;;;;;;27.00;16.23;;;12.30;93.70;;;;;;5035401;28;20055;-38
2022/09/12 03:48:26;;;;;;;35.97;17.02;;;12.30;93.70;;;;;;5035537;28;20511;-38
2022/09/12 03:50:52;;;;;;;36.33;17.70;;;12.30;93.70;;;;;;5035670;28;20033;-38
2022/09/12 03:53:17;;;;;;;29.90;16.45;;;12.20;93.70;;;;;;5035214;28;20504;-38
2022/09/12 03:55:43;;;;;;;28.08;15.82;;;12.20;93.80;;;;;;5035464;28;20026;-38
2022/09/12 03:58:09;;;;;;;27.75;16.67;;;12.30;93.80;;;;;;5035380;28;20069;-38
2022/09/12 04:00:34;;;;;;;30.27;17.08;;;12.20;93.80;;;;;;5035353;28;20429;-38
2022/09/12 04:03:00;;;;;;;30.27;16.98;;;12.30;93.80;;;;;;5035116;28;20147;-38
2022/09/12 04:05:26;;;;;;;28.92;14.55;;;12.20;93.80;;;;;;5035373;28;20167;-38
2022/09/12 04:07:51;;;;;;;26.00;15.90;;;12.30;93.90;;;;;;5035026;28;20116;-39
2022/09/12 04:10:17;;;;;;;30.70;15.55;;;12.30;93.90;;;;;;5034941;28;20032;-38
2022/09/12 04:12:44;;;;;;;31.83;15.90;;;12.30;93.90;;;;;;5034847;28;20111;-38
2022/09/12 04:15:10;;;;;;;32.35;15.77;;;12.30;93.90;;;;;;5034882;28;20109;-39
2022/09/12 04:17:35;;;;;;;28.23;16.42;;;12.30;93.90;;;;;;5034848;28;20049;-39
2022/09/12 04:20:01;;;;;;;28.92;16.35;;;12.30;93.80;;;;;;5035008;28;20052;-39
2022/09/12 04:22:28;;;;;;;26.38;14.50;;;12.30;93.80;;;;;;5035177;28;20053;-39
2022/09/12 04:24:54;;;;;;;32.03;16.15;;;12.30;93.80;;;;;;5034524;28;20033;-39
2022/09/12 04:27:20;;;;;;;26.13;14.93;;;12.20;93.80;;;;;;5034626;28;20025;-39
2022/09/12 04:29:45;;;;;;;34.53;17.85;;;12.20;93.80;;;;;;5034998;28;20025;-39
2022/09/12 04:32:11;;;;;;;26.05;13.80;;;12.20;93.90;;;;;;5034755;28;20079;-39
2022/09/12 04:34:38;;;;;;;27.30;16.33;;;12.20;93.90;;;;;;5016650;28;20021;-38
2022/09/12 04:37:03;;;;;;;31.52;15.75;;;12.20;93.90;;;;;;5034701;28;20030;-38
2022/09/12 04:39:29;;;;;;;29.08;14.57;;;12.20;93.90;;;;;;5034320;28;20438;-38
2022/09/12 04:41:55;;;;;;;25.83;16.45;;;12.20;93.90;;;;;;5034599;28;20039;-38
2022/09/12 18:11:06;;;;;;;6.70;5.25;;;20.80;59.50;;;;;;4884995;28;4720466;-47
2022/09/12 18:13:33;;;;;;;7.67;4.47;;;20.70;60.20;;;;;;5050931;28;20029;-47
2022/09/12 18:16:06;;;;;;;7.65;4.10;;;20.70;60.90;;;;;;5033414;28;20040;-38
2022/09/12 18:18:33;;;;;;;9.20;4.70;;;20.60;61.30;;;;;;5050620;28;20029;-45
2022/09/12 18:20:59;;;;;;;6.07;3.65;;;20.50;61.70;;;;;;5032917;28;20128;-38
2022/09/12 18:23:26;;;;;;;6.25;3.35;;;20.50;61.90;;;;;;5032677;28;20537;-39
2022/09/12 18:26:06;;;;;;;5.75;4.05;;;20.50;61.90;;;;;;5035679;28;20032;-40
2022/09/12 18:28:37;;;;;;;9.23;4.80;;;20.50;61.90;;;;;;5037343;28;20032;-39
2022/09/12 18:31:04;;;;;;;9.23;5.43;;;20.50;62.50;;;;;;5050320;28;20131;-38
2022/09/12 18:33:30;;;;;;;5.68;3.80;;;20.50;63.40;;;;;;5050480;28;20021;-39
2022/09/12 18:35:55;;;;;;;9.05;6.45;;;20.40;63.40;;;;;;5050153;28;20264;-38
2022/09/12 18:38:21;;;;;;;12.57;5.55;;;20.30;63.70;;;;;;5032322;28;20059;-40
2022/09/12 18:40:48;;;;;;;6.85;4.47;;;20.30;64.00;;;;;;5015911;28;20473;-39
2022/09/12 18:43:13;;;;;;;13.10;4.78;;;20.30;64.10;;;;;;5011916;28;20025;-38
2022/09/12 18:45:39;;;;;;;6.47;4.32;;;20.20;64.30;;;;;;5030527;28;20037;-38
2022/09/12 18:48:05;;;;;;;5.70;3.78;;;20.20;64.70;;;;;;5012515;28;20029;-38
2022/09/12 18:50:31;;;;;;;7.75;4.57;;;20.20;65.20;;;;;;5030779;28;20320;-38
2022/09/12 18:52:57;;;;;;;9.32;4.00;;;20.20;65.70;;;;;;5033618;28;20026;-39
2022/09/12 18:55:23;;;;;;;8.20;4.20;;;20.10;65.90;;;;;;5030346;28;20022;-38
2022/09/12 18:57:49;;;;;;;5.13;3.90;;;20.10;66.10;;;;;;5032220;28;20028;-39
2022/09/12 19:00:17;;;;;;;10.00;4.07;;;20.10;66.40;;;;;;5032819;28;20447;-48
2022/09/12 19:02:43;;;;;;;6.07;3.30;;;20.00;66.80;;;;;;5030025;28;20022;-48
2022/09/12 19:05:11;;;;;;;5.32;3.50;;;20.00;66.30;;;;;;5029916;28;20025;-39
2022/09/12 19:07:37;;;;;;;8.88;4.35;;;20.00;66.00;;;;;;5030509;28;20468;-39
2022/09/12 19:10:03;;;;;;;8.23;4.68;;;20.10;66.60;;;;;;5010318;28;20137;-38
2022/09/12 19:12:29;;;;;;;5.95;3.97;;;20.00;66.60;;;;;;5012081;28;20030;-41
2022/09/12 19:14:54;;;;;;;8.55;3.90;;;20.00;67.30;;;;;;5012322;28;20026;-39
2022/09/12 19:17:20;;;;;;;7.05;4.50;;;19.90;67.60;;;;;;5013320;28;20520;-39
2022/09/12 19:19:46;;;;;;;5.15;3.85;;;19.80;67.80;;;;;;5011854;28;20450;-39
2022/09/12 19:22:12;;;;;;;5.20;4.07;;;19.80;67.90;;;;;;5001546;28;20026;-39
2022/09/12 19:24:37;;;;;;;8.77;5.07;;;19.80;67.80;;;;;;5002367;28;20056;-38
2022/09/12 19:27:04;;;;;;;6.28;3.75;;;19.80;67.90;;;;;;5000112;28;20022;-39
2022/09/12 19:29:29;;;;;;;5.60;3.85;;;19.80;68.00;;;;;;4998416;28;20026;-38
2022/09/12 19:31:55;;;;;;;8.00;3.90;;;19.80;68.00;;;;;;4995522;28;20045;-39
2022/09/12 19:34:21;;;;;;;8.38;3.75;;;19.70;68.10;;;;;;4997200;28;20023;-39
2022/09/12 19:36:46;;;;;;;6.10;3.45;;;19.70;68.30;;;;;;4996391;28;20026;-39
2022/09/12 19:39:13;;;;;;;5.93;4.13;;;19.60;68.70;;;;;;4995970;28;20026;-39
2022/09/12 19:41:38;;;;;;;10.63;4.78;;;19.60;68.50;;;;;;4996659;28;20103;-39
2022/09/12 19:44:04;;;;;;;9.10;4.10;;;19.60;68.70;;;;;;4996661;28;20030;-37
2022/09/12 19:46:30;;;;;;;5.40;3.83;;;19.60;68.50;;;;;;4996087;28;20034;-40
2022/09/12 19:48:56;;;;;;;4.97;4.05;;;19.50;68.60;;;;;;4996490;28;20109;-39
2022/09/12 19:51:25;;;;;;;5.22;4.10;;;19.50;68.70;;;;;;4996490;28;20129;-39
2022/09/12 19:53:51;;;;;;;8.20;4.97;;;19.50;68.80;;;;;;4994698;28;20018;-38
2022/09/12 19:56:17;;;;;;;8.07;4.55;;;19.40;69.00;;;;;;4996200;28;20037;-38
2022/09/12 19:58:44;;;;;;;6.28;4.28;;;19.40;69.10;;;;;;4997486;28;20030;-39
2022/09/12 20:01:13;;;;;;;6.03;4.28;;;19.30;69.10;;;;;;4996536;28;20508;-38
2022/09/12 20:03:39;;;;;;;5.57;4.10;;;19.40;69.30;;;;;;4997873;28;20018;-38
2022/09/12 20:06:11;;;;;;;8.15;4.18;;;19.30;69.50;;;;;;4996087;28;20037;-38
2022/09/12 20:08:38;;;;;;;6.95;4.45;;;19.30;69.80;;;;;;4996601;28;20113;-38
2022/09/12 20:11:05;;;;;;;5.57;4.70;;;19.30;69.90;;;;;;4997110;28;20094;-39
2022/09/12 20:13:32;;;;;;;11.43;4.50;;;19.30;70.30;;;;;;4995946;28;20149;-38
2022/09/12 20:16:28;;;;;;;9.10;4.90;;;19.30;70.80;;;;;;4996489;28;20035;-39
2022/09/12 20:18:58;;;;;;;9.90;5.53;;;19.30;71.20;;;;;;4988715;28;20627;-38
2022/09/12 20:21:32;;;;;;;6.65;3.90;;;19.30;71.40;;;;;;4996498;28;20101;-38
2022/09/12 20:24:00;;;;;;;5.78;4.32;;;19.30;71.60;;;;;;4996910;28;20026;-39
2022/09/12 20:26:26;;;;;;;10.85;5.00;;;19.20;71.80;;;;;;4996554;28;20034;-39
2022/09/12 20:28:52;;;;;;;8.35;4.90;;;19.10;72.00;;;;;;4996414;28;20029;-39
2022/09/12 20:31:17;;;;;;;7.60;4.45;;;19.10;72.30;;;;;;4996592;28;20030;-39
2022/09/12 20:33:43;;;;;;;6.13;4.43;;;19.10;72.10;;;;;;4994855;28;20022;-38
2022/09/12 20:36:17;;;;;;;4.88;4.13;;;19.10;72.00;;;;;;4995787;28;20033;-39
2022/09/12 20:38:47;;;;;;;6.45;4.47;;;19.10;71.90;;;;;;4995860;28;20022;-38
2022/09/12 20:41:13;;;;;;;9.73;5.68;;;19.00;71.70;;;;;;4995376;28;20026;-39
2022/09/12 20:43:41;;;;;;;8.68;5.75;;;19.00;71.80;;;;;;4995374;28;20105;-39
2022/09/12 20:46:09;;;;;;;7.15;5.00;;;19.00;72.10;;;;;;4993961;28;20023;-39
2022/09/12 20:48:35;;;;;;;8.40;5.10;;;18.90;72.40;;;;;;4993662;28;20042;-38
2022/09/12 20:51:01;;;;;;;9.40;5.93;;;18.80;72.70;;;;;;4994940;28;20347;-39
2022/09/12 20:53:27;;;;;;;10.05;6.78;;;18.80;73.20;;;;;;4995365;28;20022;-39
2022/09/12 20:55:56;;;;;;;8.30;4.90;;;18.80;73.50;;;;;;4995187;28;20026;-39
2022/09/12 20:58:22;;;;;;;7.15;5.05;;;18.80;73.90;;;;;;4997619;28;20422;-52
2022/09/12 21:00:48;;;;;;;7.20;4.45;;;18.80;74.00;;;;;;4994789;28;20026;-47
2022/09/12 21:03:15;;;;;;;7.35;4.90;;;18.70;74.20;;;;;;4994829;28;20482;-47
2022/09/12 21:05:42;;;;;;;8.95;5.20;;;18.70;74.30;;;;;;4994567;28;20077;-48
2022/09/12 21:08:08;;;;;;;8.43;6.40;;;18.60;74.30;;;;;;4993118;28;20035;-46
2022/09/12 21:10:34;;;;;;;7.35;5.60;;;18.60;74.30;;;;;;5010010;28;20050;-47
2022/09/12 21:13:00;;;;;;;11.27;5.57;;;18.60;74.50;;;;;;5014514;28;20030;-49
2022/09/12 21:15:26;;;;;;;8.10;5.28;;;18.60;74.00;;;;;;5014348;28;20363;-48
2022/09/12 21:17:52;;;;;;;6.38;4.65;;;18.60;74.40;;;;;;5014296;28;20300;-47
2022/09/12 21:20:17;;;;;;;7.68;4.68;;;18.60;73.80;;;;;;5013881;28;20080;-47
2022/09/12 21:22:43;;;;;;;6.93;5.10;;;18.60;72.50;;;;;;5013658;28;20053;-45
2022/09/12 21:25:09;;;;;;;7.60;4.65;;;18.80;72.20;;;;;;5013774;28;20034;-47
2022/09/12 21:27:35;;;;;;;7.32;4.68;;;18.80;72.70;;;;;;5013751;28;20037;-48
2022/09/12 21:30:04;;;;;;;7.65;5.03;;;18.80;72.80;;;;;;5013503;28;20490;-47
2022/09/12 21:32:33;;;;;;;7.22;4.60;;;18.70;72.40;;;;;;4996727;28;20022;-48
2022/09/12 21:35:03;;;;;;;8.50;4.93;;;18.70;72.70;;;;;;5013801;28;20106;-47
2022/09/12 21:37:29;;;;;;;8.75;4.65;;;18.80;70.70;;;;;;5013866;28;20308;-49
2022/09/12 21:39:55;;;;;;;6.60;4.03;;;18.80;70.20;;;;;;5013490;28;20033;-47
2022/09/12 21:42:20;;;;;;;5.38;4.07;;;18.80;69.30;;;;;;5013980;28;20030;-47
2022/09/12 21:44:46;;;;;;;8.35;4.68;;;18.80;69.70;;;;;;4995434;28;20034;-47
2022/09/12 21:47:11;;;;;;;4.93;4.18;;;18.80;70.30;;;;;;4995650;28;20108;-47
2022/09/12 21:49:37;;;;;;;8.93;5.65;;;18.70;70.60;;;;;;5013368;28;20521;-47
2022/09/12 21:52:03;;;;;;;7.88;4.93;;;18.60;71.40;;;;;;5013506;28;20025;-46
2022/09/12 21:54:28;;;;;;;7.65;4.28;;;18.50;71.70;;;;;;5013132;28;20463;-47
2022/09/12 21:56:54;;;;;;;4.13;3.35;;;18.50;71.10;;;;;;5013127;28;20021;-47
2022/09/12 21:59:20;;;;;;;4.13;3.13;;;18.50;71.00;;;;;;5013124;28;20041;-47
2022/09/12 22:01:45;;;;;;;5.43;4.22;;;18.60;70.70;;;;;;5013205;28;20110;-50
2022/09/12 22:04:11;;;;;;;7.38;4.47;;;18.60;70.50;;;;;;4995552;28;20026;-47
2022/09/12 22:06:37;;;;;;;4.55;3.78;;;18.50;70.80;;;;;;5013188;28;20061;-48
2022/09/12 22:09:04;;;;;;;8.15;3.60;;;18.50;71.30;;;;;;5013018;28;20912;-49
2022/09/12 22:11:30;;;;;;;4.85;3.70;;;18.50;71.00;;;;;;5013310;28;20038;-47
2022/09/12 22:13:55;;;;;;;11.98;5.10;;;18.40;71.30;;;;;;4995309;28;20460;-47
2022/09/12 22:16:21;;;;;;;9.80;5.07;;;18.30;71.90;;;;;;4995379;28;20117;-46
2022/09/12 22:18:49;;;;;;;4.80;3.97;;;18.30;73.20;;;;;;5013007;28;20474;-46
2022/09/12 22:21:17;;;;;;;6.55;4.00;;;18.20;73.30;;;;;;5013133;28;20045;-47
2022/09/12 22:26:28;;;;;;;8.20;4.15;;;18.10;73.50;;;;;;5013227;28;20509;-46
2022/09/12 22:28:54;;;;;;;5.80;3.58;;;18.20;72.90;;;;;;5013106;28;20030;-49
2022/09/12 22:31:20;;;;;;;7.22;3.83;;;18.20;72.30;;;;;;4995550;28;20107;-48
2022/09/12 22:33:47;;;;;;;4.57;3.38;;;18.30;72.20;;;;;;4995207;28;20033;-47
2022/09/12 22:36:13;;;;;;;7.05;3.75;;;18.30;71.50;;;;;;5012936;28;20470;-48
2022/09/12 22:38:39;;;;;;;3.70;3.10;;;18.40;70.80;;;;;;5012749;28;20072;-47
2022/09/12 22:41:06;;;;;;;3.90;3.17;;;18.40;70.80;;;;;;5012887;28;20460;-46
2022/09/12 22:43:33;;;;;;;5.68;3.50;;;18.40;70.80;;;;;;5013068;28;20462;-48
2022/09/12 22:45:59;;;;;;;4.70;3.78;;;18.40;70.50;;;;;;5013042;28;20046;-47
2022/09/12 22:48:25;;;;;;;7.57;3.58;;;18.50;69.80;;;;;;5013007;28;20057;-49
2022/09/12 22:50:51;;;;;;;4.88;4.10;;;18.40;71.30;;;;;;4995820;28;20038;-49
2022/09/12 22:53:17;;;;;;;4.85;3.33;;;18.30;71.60;;;;;;5012676;28;20534;-47
2022/09/12 22:55:43;;;;;;;6.50;4.90;;;18.30;71.30;;;;;;5013288;28;20049;-47
2022/09/12 22:58:10;;;;;;;5.25;4.03;;;18.30;72.40;;;;;;4998733;28;20053;-47
2022/09/12 23:00:36;;;;;;;9.32;4.55;;;18.30;72.70;;;;;;5016805;28;20076;-47
2022/09/12 23:03:01;;;;;;;7.15;4.20;;;18.30;72.50;;;;;;5016276;28;20474;-47
2022/09/12 23:05:27;;;;;;;5.28;3.50;;;18.30;72.40;;;;;;5016166;28;20041;-47
2022/09/12 23:07:54;;;;;;;8.43;4.30;;;18.30;72.50;;;;;;5016057;28;20057;-49
2022/09/12 23:10:20;;;;;;;5.13;3.92;;;18.30;72.70;;;;;;5015833;28;20387;-47
2022/09/12 23:12:46;;;;;;;7.15;3.67;;;18.30;72.20;;;;;;4998265;28;20076;-46
2022/09/12 23:15:12;;;;;;;3.28;2.47;;;18.30;71.40;;;;;;5016139;28;20022;-47
2022/09/12 23:17:38;;;;;;;3.72;2.90;;;18.50;70.30;;;;;;5016233;28;20327;-46
2022/09/12 23:20:04;;;;;;;10.02;3.03;;;18.70;69.30;;;;;;5015952;28;20079;-47
2022/09/12 23:22:30;;;;;;;5.57;3.50;;;18.70;70.00;;;;;;5015884;28;20021;-47
2022/09/12 23:24:55;;;;;;;5.55;3.38;;;18.60;70.80;;;;;;5016129;28;20030;-48
2022/09/12 23:27:21;;;;;;;5.32;2.88;;;18.50;70.30;;;;;;5015788;28;20033;-49
2022/09/12 23:29:51;;;;;;;5.18;3.63;;;18.50;71.40;;;;;;5015495;28;20036;-49
2022/09/12 23:32:16;;;;;;;11.10;5.85;;;18.40;71.90;;;;;;5016375;28;20030;-51
2022/09/12 23:34:42;;;;;;;7.15;4.82;;;18.40;72.40;;;;;;5015565;28;20028;-49
2022/09/12 23:37:08;;;;;;;8.85;5.32;;;18.30;72.90;;;;;;5015617;28;20096;-47
2022/09/12 23:39:33;;;;;;;9.20;5.20;;;18.30;73.70;;;;;;5015668;28;20501;-48
2022/09/12 23:41:59;;;;;;;5.68;4.45;;;18.30;74.00;;;;;;5015442;28;20029;-46
2022/09/12 23:44:24;;;;;;;6.82;4.28;;;18.20;74.00;;;;;;5015379;28;20450;-46
2022/09/12 23:46:50;;;;;;;7.68;4.47;;;18.30;74.00;;;;;;5015614;28;20029;-46
2022/09/12 23:49:16;;;;;;;4.97;4.45;;;18.20;74.30;;;;;;5015373;28;20036;-49
2022/09/12 23:51:41;;;;;;;8.75;4.38;;;18.20;74.40;;;;;;5015274;28;20022;-46
2022/09/12 23:54:07;;;;;;;7.25;4.57;;;18.20;74.40;;;;;;5015438;28;20540;-47
2022/09/12 23:56:33;;;;;;;5.40;4.05;;;18.10;74.40;;;;;;5015495;28;20022;-46
2022/09/12 23:58:59;;;;;;;4.25;3.67;;;18.10;74.60;;;;;;5015260;28;20018;-47
